createdAt,value
2022-07-28T00:02:25.941Z,17.74
2022-07-28T00:07:27.891Z,17.43
2022-07-28T00:12:29.690Z,17.32
2022-07-28T00:17:32.237Z,17.32
2022-07-28T00:22:34.128Z,17.44
2022-07-28T00:27:36.125Z,17.54
2022-07-28T00:32:38.062Z,17.65
2022-07-28T00:37:40.213Z,17.70
2022-07-28T00:42:42.271Z,17.39
2022-07-28T00:47:44.088Z,17.15
2022-07-28T00:52:46.379Z,17.08
2022-07-28T00:57:48.314Z,17.16
2022-07-28T01:02:50.531Z,17.21
2022-07-28T01:08:10.527Z,17.18
2022-07-28T01:13:34.035Z,17.03
2022-07-28T01:18:35.841Z,16.70
2022-07-28T01:23:46.481Z,16.53
2022-07-28T01:28:57.421Z,16.49
2022-07-28T01:34:05.153Z,16.47
2022-07-28T01:39:07.104Z,16.54
2022-07-28T01:44:15.980Z,16.58
2022-07-28T01:49:21.524Z,16.64
2022-07-28T01:54:28.515Z,16.65
2022-07-28T01:59:31.834Z,16.59
2022-07-28T02:04:37.594Z,16.52
2022-07-28T02:09:40.680Z,16.49
2022-07-28T02:14:47.212Z,16.32
2022-07-28T02:19:50.327Z,16.31
2022-07-28T02:24:55.054Z,16.21
2022-07-28T02:30:08.701Z,16.10
2022-07-28T02:35:49.249Z,16.16
2022-07-28T02:40:54.852Z,16.06
2022-07-28T02:46:01.523Z,15.90
2022-07-28T02:51:05.332Z,16.02
2022-07-28T02:56:09.259Z,16.18
2022-07-28T03:01:12.052Z,16.17
2022-07-28T03:06:16.720Z,16.09
2022-07-28T03:11:18.680Z,16.16
2022-07-28T03:16:20.569Z,16.26
2022-07-28T03:21:25.025Z,16.25
2022-07-28T03:26:42.307Z,16.35
2022-07-28T03:31:48.106Z,16.33
2022-07-28T03:37:00.346Z,16.05
2022-07-28T03:42:03.744Z,15.92
2022-07-28T03:47:06.795Z,15.76
2022-07-28T03:52:08.795Z,15.72
2022-07-28T03:57:10.983Z,15.88
2022-07-28T04:02:12.861Z,16.04
2022-07-28T04:07:14.700Z,16.18
2022-07-28T04:12:16.503Z,16.22
2022-07-28T04:17:18.466Z,16.19
2022-07-28T04:22:20.254Z,16.14
2022-07-28T04:27:22.091Z,15.99
2022-07-28T04:32:23.899Z,15.98
2022-07-28T04:37:27.277Z,15.93
2022-07-28T04:42:34.755Z,16.08
2022-07-28T04:47:37.160Z,16.40
2022-07-28T04:52:40.034Z,16.65
2022-07-28T04:57:43.574Z,16.86
2022-07-28T05:02:45.912Z,17.04
2022-07-28T05:07:48.206Z,17.25
2022-07-28T05:12:50.609Z,17.46
2022-07-28T05:17:52.415Z,17.64
2022-07-28T05:22:54.248Z,17.80
2022-07-28T05:27:56.324Z,17.96
2022-07-28T05:33:01.384Z,18.15
2022-07-28T05:38:06.385Z,18.33
2022-07-28T05:43:12.245Z,18.49
2022-07-28T05:48:16.935Z,18.61
2022-07-28T05:53:19.549Z,18.71
2022-07-28T05:58:22.312Z,18.90
2022-07-28T06:03:24.147Z,19.18
2022-07-28T06:08:26.165Z,19.43
2022-07-28T06:13:30.906Z,19.68
2022-07-28T06:18:33.168Z,19.87
2022-07-28T06:23:35.211Z,20.14
2022-07-28T06:28:37.114Z,20.30
2022-07-28T06:33:39.008Z,20.53
2022-07-28T06:38:40.838Z,20.69
2022-07-28T06:43:42.766Z,20.78
2022-07-28T06:48:46.098Z,20.97
2022-07-28T06:53:48.923Z,21.06
2022-07-28T06:58:51.446Z,21.23
2022-07-28T07:03:53.557Z,21.39
2022-07-28T07:08:55.484Z,21.55
2022-07-28T07:13:57.809Z,21.71
2022-07-28T07:18:59.860Z,21.88
2022-07-28T07:24:11.698Z,22.02
2022-07-28T07:29:13.898Z,22.22
2022-07-28T07:34:16.919Z,22.33
2022-07-28T07:39:19.050Z,22.54
2022-07-28T07:44:20.896Z,22.81
2022-07-28T07:49:22.877Z,23.10
2022-07-28T07:54:24.811Z,23.37
2022-07-28T07:59:26.685Z,23.68
2022-07-28T08:04:28.889Z,23.86
2022-07-28T08:09:31.002Z,24.03
2022-07-28T08:14:37.034Z,24.19
2022-07-28T08:19:39.021Z,24.34
2022-07-28T08:24:40.977Z,24.54
2022-07-28T08:29:42.884Z,24.75
2022-07-28T08:34:44.874Z,24.93
2022-07-28T08:39:46.691Z,25.07
2022-07-28T08:45:09.087Z,25.39
2022-07-28T08:50:13.311Z,25.51
2022-07-28T08:55:19.552Z,25.65
2022-07-28T09:00:22.669Z,25.87
2022-07-28T09:05:26.089Z,25.90
2022-07-28T09:10:28.273Z,26.03
2022-07-28T09:15:30.248Z,26.15
2022-07-28T09:20:32.156Z,26.35
2022-07-28T09:25:34.776Z,26.44
2022-07-28T09:30:53.644Z,26.57
2022-07-28T09:35:58.520Z,26.68
2022-07-28T09:41:03.223Z,26.74
2022-07-28T09:46:15.772Z,26.89
2022-07-28T09:51:21.357Z,26.96
2022-07-28T09:56:25.965Z,27.07
2022-07-28T10:01:35.149Z,27.18
2022-07-28T10:06:40.768Z,27.24
2022-07-28T10:11:42.813Z,27.33
2022-07-28T10:16:52.863Z,27.26
2022-07-28T10:22:05.257Z,27.38
2022-07-28T10:27:08.265Z,27.51
2022-07-28T10:32:10.084Z,27.58
2022-07-28T10:37:19.147Z,27.83
2022-07-28T10:42:21.344Z,27.98
2022-07-28T10:47:24.518Z,28.21
2022-07-28T10:52:50.119Z,28.41
2022-07-28T10:58:25.042Z,28.54
2022-07-28T11:03:44.310Z,28.59
2022-07-28T11:08:47.551Z,28.64
2022-07-28T11:13:50.465Z,28.71
2022-07-28T11:19:36.440Z,28.83
2022-07-28T11:24:58.043Z,28.96
2022-07-28T11:30:00.261Z,28.80
2022-07-28T11:35:07.650Z,28.75
2022-07-28T11:40:45.576Z,29.15
2022-07-28T11:46:11.413Z,29.38
2022-07-28T11:51:14.619Z,29.51
2022-07-28T11:56:23.742Z,29.66
2022-07-28T12:01:25.681Z,29.90
2022-07-28T12:06:40.345Z,30.25
2022-07-28T12:11:42.704Z,30.36
2022-07-28T12:16:49.851Z,30.33
2022-07-28T12:21:52.925Z,30.36
2022-07-28T12:26:55.115Z,30.31
2022-07-28T12:31:59.571Z,29.98
2022-07-28T12:37:04.214Z,29.95
2022-07-28T12:42:08.343Z,30.09
2022-07-28T12:47:12.602Z,29.99
2022-07-28T12:52:25.060Z,30.24
2022-07-28T12:57:50.782Z,30.46
2022-07-28T13:02:56.251Z,30.51
2022-07-28T13:08:04.928Z,30.69
2022-07-28T13:13:07.924Z,30.74
2022-07-28T13:18:09.937Z,30.73
2022-07-28T13:23:11.816Z,30.59
2022-07-28T13:28:25.451Z,30.55
2022-07-28T13:33:27.305Z,30.46
2022-07-28T13:38:30.226Z,30.34
2022-07-28T13:43:35.774Z,30.35
2022-07-28T13:48:58.054Z,30.47
2022-07-28T13:54:02.040Z,30.64
2022-07-28T13:59:03.984Z,30.67
2022-07-28T14:04:14.633Z,30.70
2022-07-28T14:09:20.985Z,30.81
2022-07-28T14:14:25.391Z,30.66
2022-07-28T14:19:38.181Z,30.68
2022-07-28T14:24:42.041Z,30.41
2022-07-28T14:29:43.990Z,30.30
2022-07-28T14:34:45.829Z,30.26
2022-07-28T14:39:48.042Z,30.27
2022-07-28T14:44:49.883Z,30.37
2022-07-28T14:49:57.087Z,30.34
2022-07-28T14:55:00.284Z,30.33
2022-07-28T15:00:02.545Z,30.35
2022-07-28T15:05:05.452Z,30.35
2022-07-28T15:10:07.695Z,30.31
2022-07-28T15:15:11.447Z,30.31
2022-07-28T15:20:13.425Z,30.31
2022-07-28T15:25:15.293Z,30.19
2022-07-28T15:30:17.294Z,30.12
2022-07-28T15:35:20.269Z,30.11
2022-07-28T15:40:22.405Z,30.11
2022-07-28T15:45:24.338Z,30.08
2022-07-28T15:50:26.283Z,29.95
2022-07-28T15:55:28.119Z,29.89
2022-07-28T16:00:30.174Z,29.87
2022-07-28T16:05:32.069Z,29.81
2022-07-28T16:10:33.966Z,29.80
2022-07-28T16:15:36.003Z,29.76
2022-07-28T16:20:38.110Z,29.80
2022-07-28T16:25:44.801Z,29.76
2022-07-28T16:30:48.059Z,29.66
2022-07-28T16:35:53.292Z,29.58
2022-07-28T16:40:57.212Z,29.55
2022-07-28T16:46:01.820Z,29.44
2022-07-28T16:51:03.795Z,29.41
2022-07-28T16:56:06.820Z,29.35
2022-07-28T17:01:09.297Z,29.32
2022-07-28T17:06:11.569Z,29.19
2022-07-28T17:11:15.229Z,29.13
2022-07-28T17:16:17.155Z,29.08
2022-07-28T17:21:20.200Z,29.13
2022-07-28T17:31:44.521Z,29.05
2022-07-28T17:36:47.068Z,28.99
2022-07-28T17:41:48.949Z,28.88
2022-07-28T17:46:51.373Z,28.78
2022-07-28T17:51:53.501Z,28.69
2022-07-28T17:56:56.789Z,28.58
2022-07-28T18:01:58.797Z,28.51
2022-07-28T18:07:00.763Z,28.42
2022-07-28T18:12:03.059Z,28.33
2022-07-28T18:17:05.220Z,28.26
2022-07-28T18:22:07.261Z,28.17
2022-07-28T18:27:10.647Z,28.09
2022-07-28T18:32:14.486Z,28.03
2022-07-28T18:37:16.774Z,27.94
2022-07-28T18:42:19.111Z,27.83
2022-07-28T18:47:21.299Z,27.70
2022-07-28T18:52:23.550Z,27.61
2022-07-28T18:57:25.633Z,27.53
2022-07-28T19:02:28.083Z,27.43
2022-07-28T19:07:30.551Z,27.35
2022-07-28T19:12:34.342Z,27.27
2022-07-28T19:17:37.193Z,27.20
2022-07-28T19:22:40.263Z,27.15
2022-07-28T19:27:42.419Z,27.04
2022-07-28T19:32:44.557Z,27.03
2022-07-28T19:37:47.479Z,26.97
2022-07-28T19:42:49.454Z,26.80
2022-07-28T19:47:51.440Z,26.68
2022-07-28T19:52:53.510Z,26.55
2022-07-28T19:57:56.065Z,26.38
2022-07-28T20:02:58.372Z,26.19
2022-07-28T20:08:00.284Z,25.99
2022-07-28T20:13:17.167Z,25.71
2022-07-28T20:18:19.426Z,25.35
2022-07-28T20:23:21.351Z,25.24
2022-07-28T20:28:23.986Z,25.23
2022-07-28T20:33:25.802Z,25.14
2022-07-28T20:38:27.897Z,25.02
2022-07-28T20:43:37.031Z,24.90
2022-07-28T20:48:39.415Z,24.85
2022-07-28T20:53:41.269Z,24.65
2022-07-28T20:58:43.212Z,24.38
2022-07-28T21:03:45.353Z,24.29
2022-07-28T21:08:47.303Z,24.23
2022-07-28T21:13:49.270Z,24.13
2022-07-28T21:18:51.163Z,23.99
2022-07-28T21:23:53.051Z,23.85
2022-07-28T21:34:15.347Z,23.48
2022-07-28T21:39:17.537Z,23.47
2022-07-28T21:44:19.362Z,23.42
2022-07-28T21:49:21.321Z,23.37
2022-07-28T21:54:23.212Z,23.28
2022-07-28T21:59:25.100Z,23.19
2022-07-28T22:04:26.999Z,23.20
2022-07-28T22:09:31.098Z,23.18
2022-07-28T22:14:34.613Z,23.07
2022-07-28T22:19:36.455Z,23.00
2022-07-28T22:24:38.692Z,22.91
2022-07-28T22:29:45.940Z,22.86
2022-07-28T22:34:53.634Z,22.82
2022-07-28T22:39:55.497Z,22.65
2022-07-28T22:44:57.399Z,22.57
2022-07-28T22:49:59.265Z,22.50
2022-07-28T22:55:01.091Z,22.23
2022-07-28T23:00:03.938Z,22.09
2022-07-28T23:05:06.350Z,22.08
2022-07-28T23:10:09.506Z,22.10
2022-07-28T23:15:11.532Z,22.10
2022-07-28T23:20:13.438Z,22.18
2022-07-28T23:25:15.260Z,22.24
2022-07-28T23:30:17.421Z,22.15
2022-07-28T23:35:19.666Z,22.15
2022-07-28T23:40:21.605Z,22.10
2022-07-28T23:45:23.644Z,21.94
2022-07-28T23:50:26.410Z,21.97
2022-07-28T23:55:28.263Z,22.06
